sensor_id;sensor_type;location;lat;lon;timestamp;temperature;humidity
3198;DHT22;1611;49.394;11.136;2022-08-21T00:01:13;17.40;77.30
3198;DHT22;1611;49.394;11.136;2022-08-21T00:03:42;17.40;77.40
3198;DHT22;1611;49.394;11.136;2022-08-21T00:06:08;17.40;77.70
3198;DHT22;1611;49.394;11.136;2022-08-21T00:08:35;17.40;77.50
3198;DHT22;1611;49.394;11.136;2022-08-21T00:11:03;17.30;77.60
3198;DHT22;1611;49.394;11.136;2022-08-21T00:13:30;17.20;77.20
3198;DHT22;1611;49.394;11.136;2022-08-21T00:15:58;17.30;78.00
3198;DHT22;1611;49.394;11.136;2022-08-21T00:18:26;17.30;77.80
3198;DHT22;1611;49.394;11.136;2022-08-21T00:20:54;17.20;77.20
3198;DHT22;1611;49.394;11.136;2022-08-21T00:23:21;17.10;77.70
3198;DHT22;1611;49.394;11.136;2022-08-21T00:25:49;17.10;79.20
3198;DHT22;1611;49.394;11.136;2022-08-21T00:28:16;17.10;78.40
3198;DHT22;1611;49.394;11.136;2022-08-21T00:30:43;17.10;78.70
3198;DHT22;1611;49.394;11.136;2022-08-21T00:33:11;17.10;78.80
3198;DHT22;1611;49.394;11.136;2022-08-21T00:35:39;17.00;79.60
3198;DHT22;1611;49.394;11.136;2022-08-21T00:38:08;17.00;79.40
3198;DHT22;1611;49.394;11.136;2022-08-21T00:40:38;17.00;78.60
3198;DHT22;1611;49.394;11.136;2022-08-21T00:43:07;17.00;78.20
3198;DHT22;1611;49.394;11.136;2022-08-21T00:45:34;17.00;78.20
3198;DHT22;1611;49.394;11.136;2022-08-21T00:48:01;16.90;79.10
3198;DHT22;1611;49.394;11.136;2022-08-21T00:50:31;16.90;79.00
3198;DHT22;1611;49.394;11.136;2022-08-21T00:52:59;17.00;78.30
3198;DHT22;1611;49.394;11.136;2022-08-21T00:55:29;16.90;78.00
3198;DHT22;1611;49.394;11.136;2022-08-21T00:57:59;16.80;78.10
3198;DHT22;1611;49.394;11.136;2022-08-21T01:00:32;16.80;78.50
3198;DHT22;1611;49.394;11.136;2022-08-21T01:03:01;16.80;78.40
3198;DHT22;1611;49.394;11.136;2022-08-21T01:05:28;16.70;78.00
3198;DHT22;1611;49.394;11.136;2022-08-21T01:07:55;16.70;77.70
3198;DHT22;1611;49.394;11.136;2022-08-21T01:10:23;16.60;77.80
3198;DHT22;1611;49.394;11.136;2022-08-21T01:12:53;16.60;78.20
3198;DHT22;1611;49.394;11.136;2022-08-21T01:15:22;16.70;78.20
3198;DHT22;1611;49.394;11.136;2022-08-21T01:17:49;16.70;78.50
3198;DHT22;1611;49.394;11.136;2022-08-21T01:20:16;16.70;78.50
3198;DHT22;1611;49.394;11.136;2022-08-21T01:22:45;16.70;78.40
3198;DHT22;1611;49.394;11.136;2022-08-21T01:25:13;16.80;78.20
3198;DHT22;1611;49.394;11.136;2022-08-21T01:27:40;16.80;77.70
3198;DHT22;1611;49.394;11.136;2022-08-21T01:30:10;16.70;77.40
3198;DHT22;1611;49.394;11.136;2022-08-21T01:32:38;16.70;78.00
3198;DHT22;1611;49.394;11.136;2022-08-21T01:35:07;16.80;77.90
3198;DHT22;1611;49.394;11.136;2022-08-21T01:37:34;16.80;77.20
3198;DHT22;1611;49.394;11.136;2022-08-21T01:40:04;16.70;77.30
3198;DHT22;1611;49.394;11.136;2022-08-21T01:42:31;16.70;77.50
3198;DHT22;1611;49.394;11.136;2022-08-21T01:44:58;16.70;77.90
3198;DHT22;1611;49.394;11.136;2022-08-21T01:47:25;16.80;77.90
3198;DHT22;1611;49.394;11.136;2022-08-21T01:49:52;16.80;78.00
3198;DHT22;1611;49.394;11.136;2022-08-21T01:52:19;16.80;78.40
3198;DHT22;1611;49.394;11.136;2022-08-21T01:54:46;16.80;78.40
3198;DHT22;1611;49.394;11.136;2022-08-21T01:57:15;16.80;78.60
3198;DHT22;1611;49.394;11.136;2022-08-21T01:59:42;16.70;78.30
3198;DHT22;1611;49.394;11.136;2022-08-21T02:02:08;16.70;78.40
3198;DHT22;1611;49.394;11.136;2022-08-21T02:04:35;16.70;78.30
3198;DHT22;1611;49.394;11.136;2022-08-21T02:07:02;16.70;78.50
3198;DHT22;1611;49.394;11.136;2022-08-21T02:09:29;16.60;78.10
3198;DHT22;1611;49.394;11.136;2022-08-21T02:11:56;16.60;77.30
3198;DHT22;1611;49.394;11.136;2022-08-21T02:14:24;16.60;77.40
3198;DHT22;1611;49.394;11.136;2022-08-21T02:16:51;16.60;76.90
3198;DHT22;1611;49.394;11.136;2022-08-21T02:19:18;16.50;76.70
3198;DHT22;1611;49.394;11.136;2022-08-21T02:21:45;16.40;77.00
3198;DHT22;1611;49.394;11.136;2022-08-21T02:24:12;16.40;77.70
3198;DHT22;1611;49.394;11.136;2022-08-21T02:26:39;16.40;77.50
3198;DHT22;1611;49.394;11.136;2022-08-21T02:29:06;16.40;77.50
3198;DHT22;1611;49.394;11.136;2022-08-21T02:31:34;16.30;77.80
3198;DHT22;1611;49.394;11.136;2022-08-21T02:34:01;16.30;77.70
3198;DHT22;1611;49.394;11.136;2022-08-21T02:36:28;16.30;77.90
3198;DHT22;1611;49.394;11.136;2022-08-21T02:38:55;16.20;77.90
3198;DHT22;1611;49.394;11.136;2022-08-21T02:41:22;16.20;78.40
3198;DHT22;1611;49.394;11.136;2022-08-21T02:43:49;16.20;78.30
3198;DHT22;1611;49.394;11.136;2022-08-21T02:46:19;16.20;78.20
3198;DHT22;1611;49.394;11.136;2022-08-21T02:48:48;16.30;78.40
3198;DHT22;1611;49.394;11.136;2022-08-21T02:51:17;16.40;78.20
3198;DHT22;1611;49.394;11.136;2022-08-21T02:53:45;16.40;78.10
3198;DHT22;1611;49.394;11.136;2022-08-21T02:56:17;16.40;78.00
3198;DHT22;1611;49.394;11.136;2022-08-21T02:58:47;16.50;78.10
3198;DHT22;1611;49.394;11.136;2022-08-21T03:01:14;16.50;77.60
3198;DHT22;1611;49.394;11.136;2022-08-21T03:03:44;16.50;77.30
3198;DHT22;1611;49.394;11.136;2022-08-21T03:06:14;16.50;77.30
3198;DHT22;1611;49.394;11.136;2022-08-21T03:08:42;16.50;77.40
3198;DHT22;1611;49.394;11.136;2022-08-21T03:11:11;16.50;77.50
3198;DHT22;1611;49.394;11.136;2022-08-21T03:13:38;16.50;77.60
3198;DHT22;1611;49.394;11.136;2022-08-21T03:16:05;16.50;77.50
3198;DHT22;1611;49.394;11.136;2022-08-21T03:18:32;16.50;77.50
3198;DHT22;1611;49.394;11.136;2022-08-21T03:20:59;16.50;77.80
3198;DHT22;1611;49.394;11.136;2022-08-21T03:23:27;16.50;77.80
3198;DHT22;1611;49.394;11.136;2022-08-21T03:25:56;16.60;77.40
3198;DHT22;1611;49.394;11.136;2022-08-21T03:28:23;16.60;77.20
3198;DHT22;1611;49.394;11.136;2022-08-21T03:30:51;16.60;77.00
3198;DHT22;1611;49.394;11.136;2022-08-21T03:33:18;16.60;77.30
3198;DHT22;1611;49.394;11.136;2022-08-21T03:35:47;16.60;77.50
3198;DHT22;1611;49.394;11.136;2022-08-21T03:38:15;16.70;77.60
3198;DHT22;1611;49.394;11.136;2022-08-21T03:40:43;16.70;77.30
3198;DHT22;1611;49.394;11.136;2022-08-21T03:43:10;16.70;77.30
3198;DHT22;1611;49.394;11.136;2022-08-21T03:45:37;16.80;77.50
3198;DHT22;1611;49.394;11.136;2022-08-21T03:48:06;16.80;77.80
3198;DHT22;1611;49.394;11.136;2022-08-21T03:50:37;16.80;78.00
3198;DHT22;1611;49.394;11.136;2022-08-21T03:53:05;16.90;77.50
3198;DHT22;1611;49.394;11.136;2022-08-21T03:55:32;16.90;77.80
3198;DHT22;1611;49.394;11.136;2022-08-21T03:58:00;16.90;77.90
3198;DHT22;1611;49.394;11.136;2022-08-21T04:00:27;17.00;77.80
3198;DHT22;1611;49.394;11.136;2022-08-21T04:02:53;17.00;78.00
3198;DHT22;1611;49.394;11.136;2022-08-21T04:05:20;17.00;78.00
3198;DHT22;1611;49.394;11.136;2022-08-21T04:07:55;17.00;78.20
3198;DHT22;1611;49.394;11.136;2022-08-21T04:10:22;17.10;78.00
3198;DHT22;1611;49.394;11.136;2022-08-21T04:12:50;17.10;77.90
3198;DHT22;1611;49.394;11.136;2022-08-21T04:15:19;17.10;78.00
3198;DHT22;1611;49.394;11.136;2022-08-21T04:17:46;17.10;78.30
3198;DHT22;1611;49.394;11.136;2022-08-21T04:20:13;17.10;78.60
3198;DHT22;1611;49.394;11.136;2022-08-21T04:22:43;17.20;78.90
3198;DHT22;1611;49.394;11.136;2022-08-21T04:25:10;17.20;79.10
3198;DHT22;1611;49.394;11.136;2022-08-21T04:27:37;17.30;79.60
3198;DHT22;1611;49.394;11.136;2022-08-21T04:30:05;17.30;79.70
3198;DHT22;1611;49.394;11.136;2022-08-21T04:32:33;17.30;79.90
3198;DHT22;1611;49.394;11.136;2022-08-21T04:35:04;17.30;80.00
3198;DHT22;1611;49.394;11.136;2022-08-21T04:37:31;17.30;80.10
3198;DHT22;1611;49.394;11.136;2022-08-21T04:39:58;17.30;80.10
3198;DHT22;1611;49.394;11.136;2022-08-21T04:42:25;17.40;80.00
3198;DHT22;1611;49.394;11.136;2022-08-21T04:44:53;17.40;80.00
3198;DHT22;1611;49.394;11.136;2022-08-21T04:47:20;17.40;79.80
3198;DHT22;1611;49.394;11.136;2022-08-21T04:49:49;17.40;79.50
3198;DHT22;1611;49.394;11.136;2022-08-21T04:52:19;17.30;79.90
3198;DHT22;1611;49.394;11.136;2022-08-21T04:54:48;17.30;79.80
3198;DHT22;1611;49.394;11.136;2022-08-21T04:57:17;17.40;79.70
3198;DHT22;1611;49.394;11.136;2022-08-21T04:59:48;17.40;79.90
3198;DHT22;1611;49.394;11.136;2022-08-21T05:02:15;17.40;79.80
3198;DHT22;1611;49.394;11.136;2022-08-21T05:04:45;17.40;80.10
3198;DHT22;1611;49.394;11.136;2022-08-21T05:07:16;17.40;79.80
3198;DHT22;1611;49.394;11.136;2022-08-21T05:09:45;17.40;79.60
3198;DHT22;1611;49.394;11.136;2022-08-21T05:12:12;17.40;79.60
3198;DHT22;1611;49.394;11.136;2022-08-21T05:14:39;17.40;79.20
3198;DHT22;1611;49.394;11.136;2022-08-21T05:17:06;17.50;79.10
3198;DHT22;1611;49.394;11.136;2022-08-21T05:19:34;17.50;78.70
3198;DHT22;1611;49.394;11.136;2022-08-21T05:22:01;17.50;78.70
3198;DHT22;1611;49.394;11.136;2022-08-21T05:24:29;17.50;78.40
3198;DHT22;1611;49.394;11.136;2022-08-21T05:26:55;17.60;78.20
3198;DHT22;1611;49.394;11.136;2022-08-21T05:29:22;17.60;78.00
3198;DHT22;1611;49.394;11.136;2022-08-21T05:31:49;17.60;77.60
3198;DHT22;1611;49.394;11.136;2022-08-21T05:34:19;17.60;77.80
3198;DHT22;1611;49.394;11.136;2022-08-21T05:36:46;17.50;77.70
3198;DHT22;1611;49.394;11.136;2022-08-21T05:39:14;17.50;77.60
3198;DHT22;1611;49.394;11.136;2022-08-21T05:41:42;17.50;77.80
3198;DHT22;1611;49.394;11.136;2022-08-21T05:44:09;17.50;78.20
3198;DHT22;1611;49.394;11.136;2022-08-21T05:46:35;17.60;78.00
3198;DHT22;1611;49.394;11.136;2022-08-21T05:49:02;17.60;78.10
3198;DHT22;1611;49.394;11.136;2022-08-21T05:51:29;17.70;77.70
3198;DHT22;1611;49.394;11.136;2022-08-21T05:53:56;17.70;77.10
3198;DHT22;1611;49.394;11.136;2022-08-21T05:56:23;17.80;77.30
3198;DHT22;1611;49.394;11.136;2022-08-21T05:58:51;17.80;77.10
3198;DHT22;1611;49.394;11.136;2022-08-21T06:01:18;17.90;76.60
3198;DHT22;1611;49.394;11.136;2022-08-21T06:03:45;18.00;76.20
3198;DHT22;1611;49.394;11.136;2022-08-21T06:06:12;18.10;76.30
3198;DHT22;1611;49.394;11.136;2022-08-21T06:08:38;18.10;75.70
3198;DHT22;1611;49.394;11.136;2022-08-21T06:11:05;18.10;75.60
3198;DHT22;1611;49.394;11.136;2022-08-21T06:13:32;18.10;75.80
3198;DHT22;1611;49.394;11.136;2022-08-21T06:16:07;18.20;75.80
3198;DHT22;1611;49.394;11.136;2022-08-21T06:18:35;18.20;75.50
3198;DHT22;1611;49.394;11.136;2022-08-21T06:21:02;18.30;75.60
3198;DHT22;1611;49.394;11.136;2022-08-21T06:23:29;18.40;75.10
3198;DHT22;1611;49.394;11.136;2022-08-21T06:25:56;18.40;74.70
3198;DHT22;1611;49.394;11.136;2022-08-21T06:28:23;18.50;74.00
3198;DHT22;1611;49.394;11.136;2022-08-21T06:30:50;18.50;73.90
3198;DHT22;1611;49.394;11.136;2022-08-21T06:33:19;18.50;73.70
3198;DHT22;1611;49.394;11.136;2022-08-21T06:35:45;18.50;72.90
3198;DHT22;1611;49.394;11.136;2022-08-21T06:38:12;18.40;73.00
3198;DHT22;1611;49.394;11.136;2022-08-21T06:40:39;18.50;73.10
3198;DHT22;1611;49.394;11.136;2022-08-21T06:43:08;18.60;73.40
3198;DHT22;1611;49.394;11.136;2022-08-21T06:45:35;18.50;73.30
3198;DHT22;1611;49.394;11.136;2022-08-21T06:48:02;18.60;73.20
3198;DHT22;1611;49.394;11.136;2022-08-21T06:50:31;18.60;72.80
3198;DHT22;1611;49.394;11.136;2022-08-21T06:52:59;18.70;72.70
3198;DHT22;1611;49.394;11.136;2022-08-21T06:55:26;18.80;72.70
3198;DHT22;1611;49.394;11.136;2022-08-21T06:57:53;18.80;71.70
3198;DHT22;1611;49.394;11.136;2022-08-21T07:00:20;18.90;71.70
3198;DHT22;1611;49.394;11.136;2022-08-21T07:02:47;18.90;71.30
3198;DHT22;1611;49.394;11.136;2022-08-21T07:05:14;19.00;71.10
3198;DHT22;1611;49.394;11.136;2022-08-21T07:07:42;19.00;70.40
3198;DHT22;1611;49.394;11.136;2022-08-21T07:10:10;19.00;70.20
3198;DHT22;1611;49.394;11.136;2022-08-21T07:12:37;19.00;70.40
3198;DHT22;1611;49.394;11.136;2022-08-21T07:15:05;19.20;70.80
3198;DHT22;1611;49.394;11.136;2022-08-21T07:17:31;19.20;70.40
3198;DHT22;1611;49.394;11.136;2022-08-21T07:19:58;19.20;70.70
3198;DHT22;1611;49.394;11.136;2022-08-21T07:22:25;19.20;70.10
3198;DHT22;1611;49.394;11.136;2022-08-21T07:24:54;19.40;69.70
3198;DHT22;1611;49.394;11.136;2022-08-21T07:27:21;19.40;68.40
3198;DHT22;1611;49.394;11.136;2022-08-21T07:29:48;19.40;68.50
3198;DHT22;1611;49.394;11.136;2022-08-21T07:32:15;19.50;68.40
3198;DHT22;1611;49.394;11.136;2022-08-21T07:34:42;19.60;68.70
3198;DHT22;1611;49.394;11.136;2022-08-21T07:37:09;19.70;67.60
3198;DHT22;1611;49.394;11.136;2022-08-21T07:39:36;19.90;67.10
3198;DHT22;1611;49.394;11.136;2022-08-21T07:42:04;19.90;66.50
3198;DHT22;1611;49.394;11.136;2022-08-21T07:44:31;20.00;65.80
3198;DHT22;1611;49.394;11.136;2022-08-21T07:46:59;20.00;65.60
3198;DHT22;1611;49.394;11.136;2022-08-21T07:49:26;20.00;65.70
3198;DHT22;1611;49.394;11.136;2022-08-21T07:51:53;20.00;65.20
3198;DHT22;1611;49.394;11.136;2022-08-21T07:54:20;19.90;66.20
3198;DHT22;1611;49.394;11.136;2022-08-21T07:56:47;20.00;66.00
3198;DHT22;1611;49.394;11.136;2022-08-21T07:59:15;20.00;65.00
3198;DHT22;1611;49.394;11.136;2022-08-21T08:01:41;20.00;65.30
3198;DHT22;1611;49.394;11.136;2022-08-21T08:04:08;20.10;64.50
3198;DHT22;1611;49.394;11.136;2022-08-21T08:06:35;20.20;64.80
3198;DHT22;1611;49.394;11.136;2022-08-21T08:09:02;20.20;65.10
3198;DHT22;1611;49.394;11.136;2022-08-21T08:11:29;20.30;64.40
3198;DHT22;1611;49.394;11.136;2022-08-21T08:13:56;20.30;63.70
3198;DHT22;1611;49.394;11.136;2022-08-21T08:16:26;20.30;62.70
3198;DHT22;1611;49.394;11.136;2022-08-21T08:18:53;20.20;64.00
3198;DHT22;1611;49.394;11.136;2022-08-21T08:21:21;20.20;63.90
3198;DHT22;1611;49.394;11.136;2022-08-21T08:23:48;20.30;64.30
3198;DHT22;1611;49.394;11.136;2022-08-21T08:26:15;20.20;64.10
3198;DHT22;1611;49.394;11.136;2022-08-21T08:28:42;20.30;64.80
3198;DHT22;1611;49.394;11.136;2022-08-21T08:31:09;20.50;63.00
3198;DHT22;1611;49.394;11.136;2022-08-21T08:33:37;20.60;62.60
3198;DHT22;1611;49.394;11.136;2022-08-21T08:36:05;20.80;62.50
3198;DHT22;1611;49.394;11.136;2022-08-21T08:38:32;21.00;60.30
3198;DHT22;1611;49.394;11.136;2022-08-21T08:41:04;21.00;59.10
3198;DHT22;1611;49.394;11.136;2022-08-21T08:43:33;21.10;59.30
3198;DHT22;1611;49.394;11.136;2022-08-21T08:46:05;21.10;58.00
3198;DHT22;1611;49.394;11.136;2022-08-21T08:48:49;21.30;58.10
3198;DHT22;1611;49.394;11.136;2022-08-21T08:51:22;21.30;57.40
3198;DHT22;1611;49.394;11.136;2022-08-21T08:53:52;21.30;56.60
3198;DHT22;1611;49.394;11.136;2022-08-21T08:56:28;21.20;56.70
3198;DHT22;1611;49.394;11.136;2022-08-21T08:58:59;21.30;58.80
3198;DHT22;1611;49.394;11.136;2022-08-21T09:01:29;21.50;56.40
3198;DHT22;1611;49.394;11.136;2022-08-21T09:03:57;21.60;56.10
3198;DHT22;1611;49.394;11.136;2022-08-21T09:06:34;21.70;56.30
3198;DHT22;1611;49.394;11.136;2022-08-21T09:09:12;21.60;55.50
3198;DHT22;1611;49.394;11.136;2022-08-21T09:11:46;21.70;56.40
3198;DHT22;1611;49.394;11.136;2022-08-21T09:14:22;21.60;56.20
3198;DHT22;1611;49.394;11.136;2022-08-21T09:16:56;21.70;56.90
3198;DHT22;1611;49.394;11.136;2022-08-21T09:19:38;21.80;56.90
3198;DHT22;1611;49.394;11.136;2022-08-21T09:22:17;21.80;55.40
3198;DHT22;1611;49.394;11.136;2022-08-21T09:24:51;22.00;56.00
3198;DHT22;1611;49.394;11.136;2022-08-21T09:27:20;22.00;54.20
3198;DHT22;1611;49.394;11.136;2022-08-21T09:29:50;22.10;54.00
3198;DHT22;1611;49.394;11.136;2022-08-21T09:32:25;22.20;54.70
3198;DHT22;1611;49.394;11.136;2022-08-21T09:34:59;22.30;55.00
3198;DHT22;1611;49.394;11.136;2022-08-21T09:37:27;22.40;50.90
3198;DHT22;1611;49.394;11.136;2022-08-21T09:39:56;22.30;51.30
3198;DHT22;1611;49.394;11.136;2022-08-21T09:42:28;22.30;51.80
3198;DHT22;1611;49.394;11.136;2022-08-21T09:45:11;22.60;51.50
3198;DHT22;1611;49.394;11.136;2022-08-21T09:47:39;22.80;50.20
3198;DHT22;1611;49.394;11.136;2022-08-21T09:50:13;22.70;49.40
3198;DHT22;1611;49.394;11.136;2022-08-21T09:52:48;22.60;50.80
3198;DHT22;1611;49.394;11.136;2022-08-21T09:55:18;22.70;50.70
3198;DHT22;1611;49.394;11.136;2022-08-21T09:57:59;22.90;49.90
3198;DHT22;1611;49.394;11.136;2022-08-21T10:00:29;23.10;49.50
3198;DHT22;1611;49.394;11.136;2022-08-21T10:03:08;23.30;48.70
3198;DHT22;1611;49.394;11.136;2022-08-21T10:05:37;23.50;47.90
3198;DHT22;1611;49.394;11.136;2022-08-21T10:08:04;23.80;49.10
3198;DHT22;1611;49.394;11.136;2022-08-21T10:10:36;23.90;46.80
3198;DHT22;1611;49.394;11.136;2022-08-21T10:13:07;23.80;47.00
3198;DHT22;1611;49.394;11.136;2022-08-21T10:15:43;24.00;48.80
3198;DHT22;1611;49.394;11.136;2022-08-21T10:18:20;23.90;46.60
3198;DHT22;1611;49.394;11.136;2022-08-21T10:20:54;23.80;45.80
3198;DHT22;1611;49.394;11.136;2022-08-21T10:23:34;23.80;47.70
3198;DHT22;1611;49.394;11.136;2022-08-21T10:26:10;23.80;47.30
3198;DHT22;1611;49.394;11.136;2022-08-21T10:28:44;24.00;43.00
3198;DHT22;1611;49.394;11.136;2022-08-21T10:31:18;24.20;45.10
3198;DHT22;1611;49.394;11.136;2022-08-21T10:33:54;24.40;41.70
3198;DHT22;1611;49.394;11.136;2022-08-21T10:36:33;24.30;41.80
3198;DHT22;1611;49.394;11.136;2022-08-21T10:39:09;24.60;44.10
3198;DHT22;1611;49.394;11.136;2022-08-21T10:41:52;24.90;41.80
3198;DHT22;1611;49.394;11.136;2022-08-21T10:44:30;25.20;42.70
3198;DHT22;1611;49.394;11.136;2022-08-21T10:47:02;25.40;38.60
3198;DHT22;1611;49.394;11.136;2022-08-21T10:49:39;25.70;39.60
3198;DHT22;1611;49.394;11.136;2022-08-21T10:52:29;25.80;37.50
3198;DHT22;1611;49.394;11.136;2022-08-21T10:55:03;25.80;37.50
3198;DHT22;1611;49.394;11.136;2022-08-21T10:57:39;25.80;37.20
3198;DHT22;1611;49.394;11.136;2022-08-21T11:00:09;26.00;36.30
3198;DHT22;1611;49.394;11.136;2022-08-21T11:02:40;27.00;33.70
3198;DHT22;1611;49.394;11.136;2022-08-21T11:05:14;27.80;31.60
3198;DHT22;1611;49.394;11.136;2022-08-21T11:07:48;28.90;28.00
3198;DHT22;1611;49.394;11.136;2022-08-21T11:10:21;29.40;25.90
3198;DHT22;1611;49.394;11.136;2022-08-21T11:12:52;29.90;23.80
3198;DHT22;1611;49.394;11.136;2022-08-21T11:15:34;29.70;24.10
3198;DHT22;1611;49.394;11.136;2022-08-21T11:18:16;29.80;22.20
3198;DHT22;1611;49.394;11.136;2022-08-21T11:20:50;28.80;23.40
3198;DHT22;1611;49.394;11.136;2022-08-21T11:23:23;28.50;25.80
3198;DHT22;1611;49.394;11.136;2022-08-21T11:25:55;29.50;24.10
3198;DHT22;1611;49.394;11.136;2022-08-21T11:28:28;30.90;19.70
3198;DHT22;1611;49.394;11.136;2022-08-21T11:31:02;32.00;18.30
3198;DHT22;1611;49.394;11.136;2022-08-21T11:33:47;31.40;18.80
3198;DHT22;1611;49.394;11.136;2022-08-21T11:36:22;30.80;20.70
3198;DHT22;1611;49.394;11.136;2022-08-21T11:39:00;30.90;19.50
3198;DHT22;1611;49.394;11.136;2022-08-21T11:41:30;31.00;19.80
3198;DHT22;1611;49.394;11.136;2022-08-21T11:44:08;30.90;18.40
3198;DHT22;1611;49.394;11.136;2022-08-21T11:46:40;31.90;18.20
3198;DHT22;1611;49.394;11.136;2022-08-21T11:49:24;33.30;16.10
3198;DHT22;1611;49.394;11.136;2022-08-21T11:51:56;34.60;14.20
3198;DHT22;1611;49.394;11.136;2022-08-21T11:54:33;35.60;12.80
3198;DHT22;1611;49.394;11.136;2022-08-21T11:57:03;36.90;12.20
3198;DHT22;1611;49.394;11.136;2022-08-21T11:59:36;37.70;10.40
3198;DHT22;1611;49.394;11.136;2022-08-21T12:02:13;38.60;9.50
3198;DHT22;1611;49.394;11.136;2022-08-21T12:04:45;39.40;7.80
3198;DHT22;1611;49.394;11.136;2022-08-21T12:07:15;39.00;8.70
3198;DHT22;1611;49.394;11.136;2022-08-21T12:09:52;39.50;7.30
3198;DHT22;1611;49.394;11.136;2022-08-21T12:12:29;40.20;6.90
3198;DHT22;1611;49.394;11.136;2022-08-21T12:15:14;40.40;6.70
3198;DHT22;1611;49.394;11.136;2022-08-21T12:17:53;41.20;6.20
3198;DHT22;1611;49.394;11.136;2022-08-21T12:20:37;40.60;6.20
3198;DHT22;1611;49.394;11.136;2022-08-21T12:23:15;40.70;6.00
3198;DHT22;1611;49.394;11.136;2022-08-21T12:25:46;41.20;5.50
3198;DHT22;1611;49.394;11.136;2022-08-21T12:28:15;41.40;4.60
3198;DHT22;1611;49.394;11.136;2022-08-21T12:30:47;41.70;4.50
3198;DHT22;1611;49.394;11.136;2022-08-21T12:33:21;41.30;4.20
3198;DHT22;1611;49.394;11.136;2022-08-21T12:35:50;40.80;4.90
3198;DHT22;1611;49.394;11.136;2022-08-21T12:38:20;40.30;5.00
3198;DHT22;1611;49.394;11.136;2022-08-21T12:40:53;40.40;4.60
3198;DHT22;1611;49.394;11.136;2022-08-21T12:43:25;40.70;4.40
3198;DHT22;1611;49.394;11.136;2022-08-21T12:45:52;40.10;4.50
3198;DHT22;1611;49.394;11.136;2022-08-21T12:48:22;38.40;6.40
3198;DHT22;1611;49.394;11.136;2022-08-21T12:50:51;37.50;6.90
3198;DHT22;1611;49.394;11.136;2022-08-21T12:53:26;37.50;7.10
3198;DHT22;1611;49.394;11.136;2022-08-21T12:55:55;38.30;6.00
3198;DHT22;1611;49.394;11.136;2022-08-21T12:58:27;39.20;5.60
3198;DHT22;1611;49.394;11.136;2022-08-21T13:01:05;40.10;5.90
3198;DHT22;1611;49.394;11.136;2022-08-21T13:03:35;40.30;5.10
3198;DHT22;1611;49.394;11.136;2022-08-21T13:06:03;39.30;6.00
3198;DHT22;1611;49.394;11.136;2022-08-21T13:08:32;38.90;5.70
3198;DHT22;1611;49.394;11.136;2022-08-21T13:11:04;38.90;5.70
3198;DHT22;1611;49.394;11.136;2022-08-21T13:13:32;39.60;6.00
3198;DHT22;1611;49.394;11.136;2022-08-21T13:16:02;40.20;4.90
3198;DHT22;1611;49.394;11.136;2022-08-21T13:18:31;39.30;5.50
3198;DHT22;1611;49.394;11.136;2022-08-21T13:21:07;37.80;7.00
3198;DHT22;1611;49.394;11.136;2022-08-21T13:23:34;36.40;8.20
3198;DHT22;1611;49.394;11.136;2022-08-21T13:26:12;36.10;9.80
3198;DHT22;1611;49.394;11.136;2022-08-21T13:28:39;37.20;9.10
3198;DHT22;1611;49.394;11.136;2022-08-21T13:31:07;36.20;9.50
3198;DHT22;1611;49.394;11.136;2022-08-21T13:33:37;35.10;10.80
3198;DHT22;1611;49.394;11.136;2022-08-21T13:36:09;33.90;11.70
3198;DHT22;1611;49.394;11.136;2022-08-21T13:38:38;32.60;13.80
3198;DHT22;1611;49.394;11.136;2022-08-21T13:41:10;31.70;15.00
3198;DHT22;1611;49.394;11.136;2022-08-21T13:43:45;32.10;14.30
3198;DHT22;1611;49.394;11.136;2022-08-21T13:46:13;32.00;15.10
3198;DHT22;1611;49.394;11.136;2022-08-21T13:48:41;32.00;15.40
3198;DHT22;1611;49.394;11.136;2022-08-21T13:51:09;31.90;14.90
3198;DHT22;1611;49.394;11.136;2022-08-21T13:53:46;31.50;15.60
3198;DHT22;1611;49.394;11.136;2022-08-21T13:56:24;30.90;17.20
3198;DHT22;1611;49.394;11.136;2022-08-21T13:58:53;30.20;18.60
3198;DHT22;1611;49.394;11.136;2022-08-21T14:01:22;29.40;19.10
3198;DHT22;1611;49.394;11.136;2022-08-21T14:03:53;28.80;19.30
3198;DHT22;1611;49.394;11.136;2022-08-21T14:06:24;28.50;19.50
3198;DHT22;1611;49.394;11.136;2022-08-21T14:08:53;28.20;20.10
3198;DHT22;1611;49.394;11.136;2022-08-21T14:11:23;27.80;20.20
3198;DHT22;1611;49.394;11.136;2022-08-21T14:13:56;27.40;22.30
3198;DHT22;1611;49.394;11.136;2022-08-21T14:16:26;27.00;22.60
3198;DHT22;1611;49.394;11.136;2022-08-21T14:19:09;26.90;24.20
3198;DHT22;1611;49.394;11.136;2022-08-21T14:21:39;26.70;25.20
3198;DHT22;1611;49.394;11.136;2022-08-21T14:24:11;26.50;24.50
3198;DHT22;1611;49.394;11.136;2022-08-21T14:26:46;26.50;24.50
3198;DHT22;1611;49.394;11.136;2022-08-21T14:29:16;26.70;25.60
3198;DHT22;1611;49.394;11.136;2022-08-21T14:31:49;27.10;24.10
3198;DHT22;1611;49.394;11.136;2022-08-21T14:34:17;27.10;22.70
3198;DHT22;1611;49.394;11.136;2022-08-21T14:36:44;27.00;22.80
3198;DHT22;1611;49.394;11.136;2022-08-21T14:39:10;26.90;22.70
3198;DHT22;1611;49.394;11.136;2022-08-21T14:41:37;26.80;22.70
3198;DHT22;1611;49.394;11.136;2022-08-21T14:44:06;26.80;21.10
3198;DHT22;1611;49.394;11.136;2022-08-21T14:46:35;26.90;22.60
3198;DHT22;1611;49.394;11.136;2022-08-21T14:49:03;27.10;22.40
3198;DHT22;1611;49.394;11.136;2022-08-21T14:51:30;27.50;21.10
3198;DHT22;1611;49.394;11.136;2022-08-21T14:53:57;27.30;20.60
3198;DHT22;1611;49.394;11.136;2022-08-21T14:56:24;27.70;20.60
3198;DHT22;1611;49.394;11.136;2022-08-21T14:58:52;29.30;18.30
3198;DHT22;1611;49.394;11.136;2022-08-21T15:01:22;32.00;15.30
3198;DHT22;1611;49.394;11.136;2022-08-21T15:03:49;34.60;12.10
3198;DHT22;1611;49.394;11.136;2022-08-21T15:06:17;36.00;10.00
3198;DHT22;1611;49.394;11.136;2022-08-21T15:08:46;37.00;8.90
3198;DHT22;1611;49.394;11.136;2022-08-21T15:11:22;36.20;8.70
3198;DHT22;1611;49.394;11.136;2022-08-21T15:13:54;34.80;10.50
3198;DHT22;1611;49.394;11.136;2022-08-21T15:16:23;33.30;12.20
3198;DHT22;1611;49.394;11.136;2022-08-21T15:18:50;31.90;13.50
3198;DHT22;1611;49.394;11.136;2022-08-21T15:21:17;31.10;14.20
3198;DHT22;1611;49.394;11.136;2022-08-21T15:23:44;30.70;15.00
3198;DHT22;1611;49.394;11.136;2022-08-21T15:26:11;30.20;15.10
3198;DHT22;1611;49.394;11.136;2022-08-21T15:28:38;29.60;16.30
3198;DHT22;1611;49.394;11.136;2022-08-21T15:31:05;29.10;17.90
3198;DHT22;1611;49.394;11.136;2022-08-21T15:33:33;28.70;17.90
3198;DHT22;1611;49.394;11.136;2022-08-21T15:36:00;28.10;18.40
3198;DHT22;1611;49.394;11.136;2022-08-21T15:38:27;27.60;18.10
3198;DHT22;1611;49.394;11.136;2022-08-21T15:40:54;27.30;19.40
3198;DHT22;1611;49.394;11.136;2022-08-21T15:43:23;27.00;19.00
3198;DHT22;1611;49.394;11.136;2022-08-21T15:45:51;26.70;20.50
3198;DHT22;1611;49.394;11.136;2022-08-21T15:48:18;26.60;19.50
3198;DHT22;1611;49.394;11.136;2022-08-21T15:50:47;26.50;20.20
3198;DHT22;1611;49.394;11.136;2022-08-21T15:53:14;26.40;23.60
3198;DHT22;1611;49.394;11.136;2022-08-21T15:55:41;26.20;19.70
3198;DHT22;1611;49.394;11.136;2022-08-21T15:58:12;26.00;21.20
3198;DHT22;1611;49.394;11.136;2022-08-21T16:00:40;26.00;20.50
3198;DHT22;1611;49.394;11.136;2022-08-21T16:03:10;26.00;20.00